createdAt,value
2023-01-18T00:00:15.025Z,11.44
2023-01-18T00:03:18.816Z,11.49
2023-01-18T00:06:22.581Z,11.46
2023-01-18T00:09:27.953Z,11.40
2023-01-18T00:12:31.836Z,11.48
2023-01-18T00:15:36.960Z,11.43
2023-01-18T00:18:41.279Z,11.40
2023-01-18T00:21:45.078Z,11.51
2023-01-18T00:24:50.148Z,11.56
2023-01-18T00:27:55.381Z,11.44
2023-01-18T00:30:59.239Z,11.53
2023-01-18T00:34:03.482Z,11.65
2023-01-18T00:37:07.279Z,11.70
2023-01-18T00:40:13.167Z,11.68
2023-01-18T00:43:33.911Z,11.85
2023-01-18T00:46:37.821Z,11.68
2023-01-18T00:49:41.334Z,11.69
2023-01-18T00:52:46.598Z,11.63
2023-01-18T00:55:51.631Z,11.75
2023-01-18T00:58:55.167Z,11.62
2023-01-18T01:01:58.884Z,11.59
2023-01-18T01:05:24.972Z,11.81
2023-01-18T01:08:28.687Z,11.77
2023-01-18T01:11:33.813Z,11.88
2023-01-18T01:14:56.752Z,11.75
2023-01-18T01:18:17.827Z,11.80
2023-01-18T01:21:39.131Z,11.66
2023-01-18T01:25:00.168Z,11.69
2023-01-18T01:28:05.279Z,11.67
2023-01-18T01:31:10.624Z,11.69
2023-01-18T01:34:14.482Z,11.62
2023-01-18T01:37:18.073Z,11.50
2023-01-18T01:40:21.735Z,11.56
2023-01-18T01:43:42.645Z,11.59
2023-01-18T01:46:50.400Z,11.52
2023-01-18T01:49:59.751Z,11.53
2023-01-18T01:53:04.025Z,11.42
2023-01-18T01:56:08.981Z,11.55
2023-01-18T01:59:15.755Z,11.33
2023-01-18T02:02:19.766Z,11.33
2023-01-18T02:05:24.506Z,11.46
2023-01-18T02:08:30.034Z,11.41
2023-01-18T02:11:33.860Z,11.34
2023-01-18T02:14:39.467Z,11.33
2023-01-18T02:18:01.969Z,11.28
2023-01-18T02:21:18.284Z,11.28
2023-01-18T02:25:05.229Z,11.12
2023-01-18T02:28:15.863Z,11.30
2023-01-18T02:31:21.045Z,11.38
2023-01-18T02:34:33.596Z,11.43
2023-01-18T02:37:45.362Z,11.37
2023-01-18T02:41:02.071Z,11.20
2023-01-18T02:44:24.279Z,11.26
2023-01-18T02:47:30.054Z,11.37
2023-01-18T02:50:33.638Z,11.18
2023-01-18T02:53:40.151Z,11.19
2023-01-18T02:56:48.717Z,11.10
2023-01-18T02:59:57.040Z,11.04
2023-01-18T03:03:01.504Z,11.21
2023-01-18T03:06:09.370Z,11.09
2023-01-18T03:09:21.745Z,11.22
2023-01-18T03:12:28.652Z,11.25
2023-01-18T03:15:44.887Z,11.25
2023-01-18T03:19:04.364Z,11.27
2023-01-18T03:22:08.084Z,11.26
2023-01-18T03:25:13.798Z,11.13
2023-01-18T03:28:38.478Z,11.13
2023-01-18T03:32:05.684Z,11.04
2023-01-18T03:35:14.291Z,11.22
2023-01-18T03:38:19.158Z,11.25
2023-01-18T03:41:26.339Z,11.29
2023-01-18T03:44:36.432Z,11.07
2023-01-18T03:47:41.717Z,11.13
2023-01-18T03:50:50.866Z,11.25
2023-01-18T03:54:02.770Z,11.31
2023-01-18T03:57:12.772Z,11.41
2023-01-18T04:00:17.726Z,11.36
2023-01-18T04:03:22.817Z,11.26
2023-01-18T04:06:26.729Z,11.17
2023-01-18T04:09:30.586Z,11.10
2023-01-18T04:12:35.241Z,11.10
2023-01-18T04:15:38.995Z,11.17
2023-01-18T04:18:44.073Z,11.12
2023-01-18T04:21:47.633Z,11.09
2023-01-18T04:24:51.339Z,10.77
2023-01-18T04:27:54.951Z,10.73
2023-01-18T04:30:58.806Z,10.74
2023-01-18T04:34:03.742Z,10.91
2023-01-18T04:37:07.377Z,10.94
2023-01-18T04:40:12.000Z,10.90
2023-01-18T04:43:15.534Z,10.88
2023-01-18T04:46:19.337Z,10.87
2023-01-18T04:49:24.484Z,10.88
2023-01-18T04:52:32.331Z,11.07
2023-01-18T04:55:35.849Z,10.99
2023-01-18T04:58:39.929Z,11.00
2023-01-18T05:01:43.750Z,11.07
2023-01-18T05:04:49.004Z,10.82
2023-01-18T05:07:52.712Z,10.82
2023-01-18T05:11:02.688Z,10.60
2023-01-18T05:14:06.333Z,10.79
2023-01-18T05:17:10.266Z,10.56
2023-01-18T05:20:15.617Z,10.86
2023-01-18T05:23:19.459Z,10.73
2023-01-18T05:26:25.842Z,10.70
2023-01-18T05:29:29.370Z,10.47
2023-01-18T05:32:33.039Z,10.69
2023-01-18T05:35:38.295Z,10.75
2023-01-18T05:38:42.071Z,10.78
2023-01-18T05:41:46.064Z,10.64
2023-01-18T05:44:49.781Z,10.61
2023-01-18T05:47:56.019Z,10.78
2023-01-18T05:51:01.012Z,10.32
2023-01-18T05:54:04.666Z,10.60
2023-01-18T05:57:08.478Z,10.68
2023-01-18T06:00:13.287Z,10.70
2023-01-18T06:03:17.099Z,10.64
2023-01-18T06:06:22.478Z,10.77
2023-01-18T06:09:26.259Z,10.73
2023-01-18T06:12:30.005Z,10.84
2023-01-18T06:15:34.069Z,10.93
2023-01-18T06:18:39.841Z,11.07
2023-01-18T06:21:45.118Z,10.47
2023-01-18T06:24:48.941Z,11.05
2023-01-18T06:27:52.934Z,11.34
2023-01-18T06:30:57.805Z,11.34
2023-01-18T06:34:07.081Z,11.34
2023-01-18T06:37:12.958Z,11.51
2023-01-18T06:40:17.918Z,11.57
2023-01-18T06:43:22.090Z,11.56
2023-01-18T06:46:25.921Z,11.53
2023-01-18T06:49:30.295Z,12.28
2023-01-18T06:52:35.559Z,12.60
2023-01-18T06:55:39.419Z,12.82
2023-01-18T06:58:43.558Z,13.14
2023-01-18T07:01:48.056Z,13.45
2023-01-18T07:04:51.899Z,13.27
2023-01-18T07:07:57.179Z,13.19
2023-01-18T07:11:05.054Z,13.14
2023-01-18T07:14:08.858Z,13.15
2023-01-18T07:17:12.699Z,13.06
2023-01-18T07:20:17.127Z,13.10
2023-01-18T07:23:22.300Z,12.84
2023-01-18T07:26:27.100Z,12.96
2023-01-18T07:29:31.060Z,12.59
2023-01-18T07:32:34.799Z,12.69
2023-01-18T07:35:38.760Z,12.61
2023-01-18T07:38:44.351Z,12.78
2023-01-18T07:41:48.320Z,13.02
2023-01-18T07:44:54.538Z,13.59
2023-01-18T07:47:58.438Z,13.70
2023-01-18T07:51:04.141Z,13.73
2023-01-18T07:54:09.560Z,13.90
2023-01-18T07:57:13.622Z,14.02
2023-01-18T08:00:17.684Z,14.79
2023-01-18T08:03:21.941Z,15.36
2023-01-18T08:06:27.477Z,15.64
2023-01-18T08:09:34.164Z,16.27
2023-01-18T08:12:38.061Z,16.62
2023-01-18T08:15:41.940Z,16.46
2023-01-18T08:18:46.398Z,17.10
2023-01-18T08:21:50.241Z,17.27
2023-01-18T08:24:55.520Z,17.66
2023-01-18T08:28:00.262Z,17.69
2023-01-18T08:31:12.658Z,17.85
2023-01-18T08:34:16.482Z,18.06
2023-01-18T08:37:20.446Z,18.77
2023-01-18T08:40:27.496Z,19.17
2023-01-18T08:43:31.504Z,19.52
2023-01-18T08:46:36.515Z,19.42
2023-01-18T08:49:40.259Z,19.33
2023-01-18T08:52:44.079Z,19.53
2023-01-18T08:55:49.839Z,19.99
2023-01-18T08:58:53.917Z,19.73
2023-01-18T09:01:58.963Z,19.98
2023-01-18T09:05:02.898Z,20.32
2023-01-18T09:08:07.200Z,20.52
2023-01-18T09:11:12.607Z,20.84
2023-01-18T09:14:16.952Z,20.59
2023-01-18T09:17:21.479Z,21.31
2023-01-18T09:20:25.718Z,21.38
2023-01-18T09:23:29.823Z,21.71
2023-01-18T09:26:35.166Z,21.85
2023-01-18T09:29:38.979Z,21.89
2023-01-18T09:32:42.872Z,21.72
2023-01-18T09:35:48.026Z,22.28
2023-01-18T09:38:51.801Z,21.83
2023-01-18T09:42:00.156Z,22.13
2023-01-18T09:45:05.079Z,22.45
2023-01-18T09:48:17.798Z,22.44
2023-01-18T09:51:24.487Z,22.73
2023-01-18T09:54:40.326Z,22.62
2023-01-18T09:58:00.526Z,22.81
2023-01-18T10:01:08.418Z,22.98
2023-01-18T10:04:18.701Z,23.15
2023-01-18T10:07:24.808Z,23.53
2023-01-18T10:10:29.562Z,23.33
2023-01-18T10:13:46.979Z,23.46
2023-01-18T10:16:57.064Z,23.28
2023-01-18T10:20:01.905Z,23.23
2023-01-18T10:23:16.240Z,23.14
2023-01-18T10:26:27.326Z,23.23
2023-01-18T10:29:50.684Z,23.13
2023-01-18T10:32:58.260Z,23.55
2023-01-18T10:36:09.607Z,23.80
2023-01-18T10:39:31.286Z,23.95
2023-01-18T10:42:41.240Z,23.72
2023-01-18T10:45:46.769Z,24.07
2023-01-18T10:48:51.922Z,23.12
2023-01-18T10:51:55.719Z,23.01
2023-01-18T10:55:01.859Z,22.20
2023-01-18T10:58:05.779Z,22.89
2023-01-18T11:01:18.011Z,23.13
2023-01-18T11:04:24.448Z,22.56
2023-01-18T11:07:29.679Z,22.77
2023-01-18T11:10:33.779Z,22.17
2023-01-18T11:13:43.884Z,22.53
2023-01-18T11:16:59.502Z,22.32
2023-01-18T11:20:07.825Z,22.43
2023-01-18T11:23:21.301Z,22.17
2023-01-18T11:26:25.559Z,22.12
2023-01-18T11:29:31.639Z,22.10
2023-01-18T11:32:38.221Z,22.03
2023-01-18T11:35:42.039Z,21.83
2023-01-18T11:38:45.939Z,21.53
2023-01-18T11:41:50.206Z,21.25
2023-01-18T11:45:05.943Z,21.13
2023-01-18T11:48:16.419Z,21.03
2023-01-18T11:51:28.059Z,21.01
2023-01-18T11:54:38.488Z,21.26
2023-01-18T11:57:43.856Z,21.11
2023-01-18T12:00:59.656Z,21.13
2023-01-18T12:04:12.660Z,20.99
2023-01-18T12:07:31.926Z,21.04
2023-01-18T12:10:43.759Z,21.35
2023-01-18T12:14:01.134Z,21.56
2023-01-18T12:17:38.058Z,21.64
2023-01-18T12:20:52.980Z,21.96
2023-01-18T12:24:11.638Z,21.91
2023-01-18T12:27:24.679Z,22.00
2023-01-18T12:30:50.287Z,21.98
2023-01-18T12:34:00.498Z,21.95
2023-01-18T12:37:20.280Z,21.74
2023-01-18T12:40:40.920Z,21.80
2023-01-18T12:43:57.580Z,21.62
2023-01-18T12:47:14.369Z,21.42
2023-01-18T12:50:25.586Z,20.98
2023-01-18T12:53:44.879Z,20.77
2023-01-18T12:56:52.079Z,20.65
2023-01-18T12:59:59.380Z,20.55
2023-01-18T13:03:11.219Z,20.45
2023-01-18T13:06:16.097Z,20.45
2023-01-18T13:09:24.918Z,20.48
2023-01-18T13:12:29.501Z,20.59
2023-01-18T13:15:44.499Z,20.50
2023-01-18T13:18:56.459Z,20.52
2023-01-18T13:22:08.838Z,20.44
2023-01-18T13:25:34.063Z,20.24
2023-01-18T13:28:38.786Z,20.12
2023-01-18T13:31:42.700Z,20.10
2023-01-18T13:34:49.012Z,20.04
2023-01-18T13:37:56.250Z,20.09
2023-01-18T13:41:04.217Z,20.09
2023-01-18T13:44:27.071Z,20.13
2023-01-18T13:47:51.064Z,20.04
2023-01-18T13:50:54.927Z,20.13
2023-01-18T13:53:58.747Z,20.14
2023-01-18T13:57:18.319Z,19.94
2023-01-18T14:00:26.015Z,19.75
2023-01-18T14:03:32.626Z,19.64
2023-01-18T14:06:39.599Z,19.61
2023-01-18T14:09:46.959Z,19.55
2023-01-18T14:12:54.038Z,19.38
2023-01-18T14:16:00.480Z,19.26
2023-01-18T14:19:17.306Z,19.10
2023-01-18T14:22:33.197Z,19.03
2023-01-18T14:25:53.619Z,18.96
2023-01-18T14:29:02.125Z,18.90
2023-01-18T14:32:10.799Z,18.86
2023-01-18T14:35:20.978Z,18.85
2023-01-18T14:38:24.896Z,18.88
2023-01-18T14:41:29.610Z,18.84
2023-01-18T14:44:56.956Z,18.83
2023-01-18T14:48:04.342Z,18.90
2023-01-18T14:51:08.320Z,18.78
2023-01-18T14:54:18.816Z,18.75
2023-01-18T14:57:24.077Z,18.80
2023-01-18T15:00:29.499Z,18.72
2023-01-18T15:03:33.859Z,18.70
2023-01-18T15:06:41.469Z,18.59
2023-01-18T15:09:46.239Z,18.56
2023-01-18T15:12:53.839Z,18.49
2023-01-18T15:16:01.514Z,18.41
2023-01-18T15:19:05.641Z,18.41
2023-01-18T15:22:13.797Z,18.34
2023-01-18T15:25:21.858Z,18.32
2023-01-18T15:28:31.820Z,18.25
2023-01-18T15:31:46.347Z,18.18
2023-01-18T15:34:51.859Z,18.15
2023-01-18T15:37:55.661Z,18.08
2023-01-18T15:41:04.419Z,18.00
2023-01-18T15:44:20.538Z,18.07
2023-01-18T15:47:30.138Z,18.01
2023-01-18T15:50:37.706Z,17.89
2023-01-18T15:53:46.380Z,17.99
2023-01-18T15:56:50.798Z,18.00
2023-01-18T15:59:55.558Z,18.02
2023-01-18T16:03:02.996Z,18.03
2023-01-18T16:06:13.852Z,17.95
2023-01-18T16:09:23.513Z,18.02
2023-01-18T16:12:36.701Z,18.02
2023-01-18T16:15:40.941Z,17.91
2023-01-18T16:18:49.204Z,17.86
2023-01-18T16:21:54.776Z,17.89
2023-01-18T16:25:01.719Z,17.63
2023-01-18T16:28:06.414Z,17.62
2023-01-18T16:31:10.409Z,17.61
2023-01-18T16:34:27.499Z,17.62
2023-01-18T16:37:31.838Z,17.59
2023-01-18T16:40:39.398Z,17.45
2023-01-18T16:43:45.098Z,17.50
2023-01-18T16:46:49.738Z,17.47
2023-01-18T16:49:55.098Z,17.31
2023-01-18T16:52:59.154Z,17.20
2023-01-18T16:56:02.978Z,17.22
2023-01-18T16:59:17.329Z,17.18
2023-01-18T17:02:21.322Z,17.28
2023-01-18T17:05:27.878Z,17.09
2023-01-18T17:08:31.906Z,17.07
2023-01-18T17:11:35.690Z,17.06
2023-01-18T17:14:39.582Z,17.16
2023-01-18T17:17:44.139Z,17.09
2023-01-18T17:20:49.410Z,17.05
2023-01-18T17:23:53.400Z,16.99
2023-01-18T17:26:57.239Z,16.74
2023-01-18T17:30:01.085Z,16.64
2023-01-18T17:33:04.903Z,16.74
2023-01-18T17:36:10.818Z,16.73
2023-01-18T17:39:15.698Z,16.94
2023-01-18T17:42:29.701Z,16.94
2023-01-18T17:45:34.120Z,16.80
2023-01-18T17:48:38.101Z,16.76
2023-01-18T17:51:43.399Z,16.79
2023-01-18T17:54:47.159Z,16.69
2023-01-18T17:57:50.938Z,16.74
2023-01-18T18:00:55.573Z,16.60
2023-01-18T18:03:59.468Z,16.61
2023-01-18T18:07:04.827Z,16.44
2023-01-18T18:10:09.920Z,16.50
2023-01-18T18:13:13.845Z,16.33
2023-01-18T18:16:18.849Z,16.30
2023-01-18T18:19:23.298Z,16.35
2023-01-18T18:22:28.743Z,16.28
2023-01-18T18:25:32.842Z,16.37
2023-01-18T18:28:36.707Z,16.20
2023-01-18T18:31:40.747Z,16.25
2023-01-18T18:34:44.699Z,16.39
2023-01-18T18:37:50.178Z,16.54
2023-01-18T18:40:54.719Z,16.55
2023-01-18T18:43:58.759Z,16.64
2023-01-18T18:47:04.868Z,16.57
2023-01-18T18:50:10.626Z,16.68
2023-01-18T18:53:16.922Z,16.64
2023-01-18T18:56:22.030Z,16.57
2023-01-18T18:59:25.840Z,16.51
2023-01-18T19:02:29.610Z,16.36
2023-01-18T19:05:34.565Z,16.36
2023-01-18T19:08:40.147Z,16.40
2023-01-18T19:11:50.639Z,16.31
2023-01-18T19:14:58.663Z,16.26
2023-01-18T19:18:02.457Z,16.25
2023-01-18T19:21:06.767Z,16.21
2023-01-18T19:24:11.959Z,16.19
2023-01-18T19:27:15.882Z,16.10
2023-01-18T19:30:20.265Z,15.85
2023-01-18T19:33:24.218Z,15.90
2023-01-18T19:36:28.201Z,15.76
2023-01-18T19:39:35.131Z,15.84
2023-01-18T19:42:39.519Z,15.85
2023-01-18T19:45:43.379Z,15.83
2023-01-18T19:48:47.240Z,15.76
2023-01-18T19:51:52.040Z,15.74
2023-01-18T19:54:58.971Z,15.80
2023-01-18T19:58:03.128Z,15.86
2023-01-18T20:01:11.524Z,15.82
2023-01-18T20:04:15.750Z,15.69
2023-01-18T20:07:19.699Z,15.57
2023-01-18T20:10:24.963Z,15.69
2023-01-18T20:13:30.201Z,15.48
2023-01-18T20:16:34.245Z,15.49
2023-01-18T20:19:38.172Z,15.42
2023-01-18T20:22:45.281Z,15.45
2023-01-18T20:25:53.320Z,15.43
2023-01-18T20:28:57.299Z,15.32
2023-01-18T20:32:13.476Z,15.24
2023-01-18T20:35:19.191Z,15.18
2023-01-18T20:38:23.038Z,15.09
2023-01-18T20:41:28.340Z,15.15
2023-01-18T20:44:32.426Z,14.81
2023-01-18T20:47:36.358Z,14.98
2023-01-18T20:50:40.219Z,15.03
2023-01-18T20:53:44.179Z,15.17
2023-01-18T20:56:49.559Z,15.12
2023-01-18T20:59:53.380Z,15.06
2023-01-18T21:02:57.425Z,15.05
2023-01-18T21:06:01.378Z,15.06
2023-01-18T21:09:05.607Z,15.22
2023-01-18T21:12:10.901Z,15.09
2023-01-18T21:15:14.707Z,14.83
2023-01-18T21:18:18.545Z,15.06
2023-01-18T21:21:22.482Z,15.00
2023-01-18T21:24:26.239Z,15.15
2023-01-18T21:27:33.439Z,15.13
2023-01-18T21:30:37.121Z,15.12
2023-01-18T21:33:41.029Z,14.75
2023-01-18T21:36:45.120Z,15.23
2023-01-18T21:39:48.996Z,15.34
2023-01-18T21:43:11.723Z,15.34
2023-01-18T21:46:15.603Z,15.22
2023-01-18T21:50:03.966Z,15.03
2023-01-18T21:53:18.181Z,15.09
2023-01-18T21:56:22.418Z,15.16
2023-01-18T21:59:27.639Z,15.12
2023-01-18T22:02:31.686Z,14.84
2023-01-18T22:05:35.507Z,14.90
2023-01-18T22:08:39.378Z,14.95
2023-01-18T22:11:43.624Z,14.77
2023-01-18T22:14:49.202Z,14.58
2023-01-18T22:17:53.339Z,14.77
2023-01-18T22:20:57.684Z,14.99
2023-01-18T22:24:01.676Z,14.82
2023-01-18T22:27:06.142Z,14.93
2023-01-18T22:30:13.387Z,14.86
2023-01-18T22:33:17.423Z,14.72
2023-01-18T22:36:21.449Z,14.61
2023-01-18T22:39:25.669Z,14.70
2023-01-18T22:42:29.691Z,14.89
2023-01-18T22:45:35.082Z,14.68
2023-01-18T22:48:40.144Z,14.67
2023-01-18T22:51:45.070Z,14.67
2023-01-18T22:54:49.004Z,14.73
2023-01-18T22:57:53.008Z,14.86
2023-01-18T23:00:58.548Z,14.97
2023-01-18T23:04:04.787Z,14.72
2023-01-18T23:07:08.875Z,14.21
2023-01-18T23:10:12.863Z,14.39
2023-01-18T23:13:16.982Z,13.98
2023-01-18T23:16:39.501Z,13.98
2023-01-18T23:19:43.552Z,13.99
2023-01-18T23:22:47.686Z,14.18
2023-01-18T23:25:55.975Z,14.30
2023-01-18T23:28:59.982Z,14.25
2023-01-18T23:32:05.673Z,14.20
2023-01-18T23:35:10.222Z,14.20
2023-01-18T23:38:14.165Z,14.24
2023-01-18T23:41:35.262Z,14.27
2023-01-18T23:44:56.985Z,14.13
2023-01-18T23:48:25.242Z,13.64
2023-01-18T23:51:46.201Z,13.69
2023-01-18T23:54:50.162Z,13.60
2023-01-18T23:57:54.231Z,13.90
